Time;durP1;ratioP1;P1;durP2;ratioP2;P2;SDS_P1;SDS_P2;PMS_P1;PMS_P2;Temp;Humidity;BMP_temperature;BMP_pressure;BME280_temperature;BME280_humidity;BME280_pressure;Samples;Min_cycle;Max_cycle;Signal;HPM_P1;HPM_P2
2021/08/18 00:00:50;;;;;;;41.58;32.25;;;24.80;97.20;;;;;;5092571;28;20115;-82
2021/08/18 00:03:16;;;;;;;42.13;33.53;;;24.70;97.20;;;;;;5074809;28;20089;-83
2021/08/18 00:05:42;;;;;;;42.25;34.08;;;24.80;97.20;;;;;;5074679;28;20066;-82
2021/08/18 00:08:10;;;;;;;41.25;31.92;;;24.80;97.20;;;;;;5076442;28;20060;-83
2021/08/18 00:10:40;;;;;;;42.50;33.70;;;24.80;97.20;;;;;;5058453;28;20112;-83
2021/08/18 00:13:10;;;;;;;41.15;33.08;;;24.80;97.20;;;;;;5074990;28;20032;-83
2021/08/18 00:15:38;;;;;;;42.25;33.17;;;24.80;97.20;;;;;;5093168;28;20036;-83
2021/08/18 00:18:05;;;;;;;43.78;34.78;;;24.80;97.20;;;;;;5075055;28;20066;-83
2021/08/18 00:20:32;;;;;;;42.03;33.28;;;24.80;97.20;;;;;;5074850;28;20036;-84
2021/08/18 00:22:59;;;;;;;42.20;32.88;;;24.80;97.20;;;;;;5092772;28;20028;-83
2021/08/18 00:25:26;;;;;;;43.70;34.50;;;24.80;97.20;;;;;;5092128;28;20052;-83
2021/08/18 00:27:53;;;;;;;43.95;34.92;;;24.80;97.20;;;;;;5058165;28;20508;-83
2021/08/18 00:30:18;;;;;;;46.63;35.88;;;24.80;97.20;;;;;;5074426;28;20036;-83
2021/08/18 00:32:47;;;;;;;42.42;33.83;;;24.80;97.20;;;;;;5093337;28;20076;-83
2021/08/18 00:35:16;;;;;;;44.22;34.90;;;24.80;97.20;;;;;;5092528;28;20103;-86
2021/08/18 00:37:41;;;;;;;43.03;34.20;;;24.80;97.20;;;;;;5042170;28;20036;-82
2021/08/18 00:40:08;;;;;;;42.58;33.88;;;24.80;97.10;;;;;;5074437;28;20034;-83
2021/08/18 00:42:34;;;;;;;39.58;32.30;;;24.80;97.10;;;;;;5040935;28;20039;-83
2021/08/18 00:45:00;;;;;;;42.72;32.78;;;24.80;97.10;;;;;;5074062;28;20036;-83
2021/08/18 00:47:26;;;;;;;40.70;32.28;;;24.80;97.10;;;;;;5091938;28;20056;-83
2021/08/18 00:49:51;;;;;;;42.22;33.60;;;24.80;97.10;;;;;;5057810;28;20501;-83
2021/08/18 00:52:18;;;;;;;39.88;32.78;;;24.80;97.10;;;;;;5040377;28;20035;-84
2021/08/18 00:54:46;;;;;;;39.63;32.33;;;24.80;97.10;;;;;;5091837;28;20024;-83
2021/08/18 00:57:14;;;;;;;39.63;31.77;;;24.80;97.10;;;;;;5074732;28;20039;-82
2021/08/18 00:59:40;;;;;;;38.00;30.38;;;24.80;97.10;;;;;;5058008;28;20059;-83
2021/08/18 01:02:07;;;;;;;37.70;30.67;;;24.80;97.20;;;;;;5074402;28;20032;-83
2021/08/18 01:04:33;;;;;;;38.92;31.58;;;24.80;97.10;;;;;;5073963;28;20115;-83
2021/08/18 01:07:04;;;;;;;41.25;30.90;;;24.80;97.10;;;;;;5057255;28;20040;-82
2021/08/18 01:09:31;;;;;;;37.83;30.67;;;24.80;97.20;;;;;;5092128;28;20027;-83
2021/08/18 01:11:58;;;;;;;38.03;31.27;;;24.70;97.10;;;;;;5073879;28;20067;-83
2021/08/18 01:14:23;;;;;;;38.10;29.92;;;24.70;97.20;;;;;;5091849;28;20073;-83
2021/08/18 01:16:49;;;;;;;34.80;28.42;;;24.70;97.20;;;;;;5057377;28;20040;-82
2021/08/18 01:19:26;;;;;;;38.45;29.75;;;24.70;97.20;;;;;;5057050;28;20037;-82
2021/08/18 01:21:52;;;;;;;35.63;28.08;;;24.70;97.20;;;;;;5071600;28;20464;-83
2021/08/18 01:24:19;;;;;;;36.28;28.30;;;24.70;97.20;;;;;;5055738;28;20056;-86
2021/08/18 01:26:46;;;;;;;35.67;28.15;;;24.70;97.20;;;;;;5074369;28;20040;-83
2021/08/18 01:29:12;;;;;;;33.05;26.85;;;24.70;97.20;;;;;;5073920;28;20038;-83
2021/08/18 01:31:37;;;;;;;33.25;27.20;;;24.70;97.20;;;;;;5073757;28;20027;-83
2021/08/18 01:34:05;;;;;;;33.08;26.83;;;24.70;97.20;;;;;;5057227;28;20442;-83
2021/08/18 01:36:32;;;;;;;33.78;27.92;;;24.70;97.20;;;;;;5056996;28;20083;-83
2021/08/18 01:39:08;;;;;;;31.13;26.65;;;24.70;97.20;;;;;;5057319;28;20100;-82
2021/08/18 01:41:34;;;;;;;34.58;26.60;;;24.70;97.20;;;;;;5074046;28;20032;-82
2021/08/18 01:44:00;;;;;;;31.25;26.20;;;24.70;97.20;;;;;;5092192;28;20032;-82
2021/08/18 01:46:26;;;;;;;31.20;26.23;;;24.70;97.20;;;;;;5073325;28;20036;-82
2021/08/18 01:48:53;;;;;;;31.00;25.42;;;24.70;97.20;;;;;;5057833;28;20055;-82
2021/08/18 01:51:19;;;;;;;31.55;25.92;;;24.70;97.20;;;;;;5074241;28;20079;-82
2021/08/18 01:53:46;;;;;;;33.58;25.75;;;24.70;97.20;;;;;;5094061;28;20095;-82
2021/08/18 01:56:14;;;;;;;31.20;24.45;;;24.70;97.20;;;;;;5095807;28;20068;-83
2021/08/18 01:58:41;;;;;;;31.08;24.88;;;24.70;97.20;;;;;;5077212;28;20024;-82
2021/08/18 02:01:09;;;;;;;31.02;24.85;;;24.70;97.20;;;;;;5095709;28;20027;-81
2021/08/18 02:03:35;;;;;;;30.42;24.55;;;24.70;97.20;;;;;;5095183;28;20103;-82
2021/08/18 02:06:01;;;;;;;28.75;24.88;;;24.70;97.20;;;;;;5095595;28;20040;-83
2021/08/18 02:08:27;;;;;;;32.13;25.25;;;24.70;97.20;;;;;;5061063;28;20061;-83
2021/08/18 02:10:53;;;;;;;29.13;24.02;;;24.70;97.20;;;;;;5059895;28;20036;-83
2021/08/18 02:13:19;;;;;;;31.55;24.92;;;24.70;97.20;;;;;;5060518;28;20105;-83
2021/08/18 02:15:45;;;;;;;30.08;24.38;;;24.70;97.20;;;;;;5076836;28;20040;-83
2021/08/18 02:18:14;;;;;;;30.45;25.05;;;24.70;97.10;;;;;;5076939;28;20032;-83
2021/08/18 02:20:41;;;;;;;28.65;24.75;;;24.70;97.10;;;;;;5094824;28;20034;-83
2021/08/18 02:23:07;;;;;;;27.63;23.00;;;24.70;97.10;;;;;;5077136;28;20024;-83
2021/08/18 02:25:35;;;;;;;31.33;25.55;;;24.70;97.10;;;;;;5094851;28;20509;-84
2021/08/18 02:28:02;;;;;;;29.35;24.27;;;24.70;97.10;;;;;;5095442;28;20409;-83
2021/08/18 02:30:28;;;;;;;30.65;25.35;;;24.80;97.10;;;;;;5076902;28;20120;-84
2021/08/18 02:32:54;;;;;;;32.65;25.42;;;24.70;97.10;;;;;;5060284;28;20056;-83
2021/08/18 02:35:20;;;;;;;30.08;25.08;;;24.70;97.10;;;;;;5060205;28;20111;-84
2021/08/18 02:37:47;;;;;;;32.55;25.55;;;24.70;97.10;;;;;;5094647;28;20105;-83
2021/08/18 02:40:18;;;;;;;30.63;24.13;;;24.70;97.10;;;;;;5059787;28;20531;-84
2021/08/18 02:42:45;;;;;;;29.00;24.13;;;24.70;97.10;;;;;;5076804;28;20204;-84
2021/08/18 02:45:11;;;;;;;31.63;25.92;;;24.70;97.10;;;;;;5076625;28;20032;-84
2021/08/18 02:47:38;;;;;;;28.80;25.00;;;24.70;97.00;;;;;;5094582;28;20078;-84
2021/08/18 02:50:06;;;;;;;30.75;24.55;;;24.70;97.10;;;;;;5076510;28;20059;-84
2021/08/18 02:52:31;;;;;;;30.65;25.10;;;24.70;97.10;;;;;;5076303;28;20024;-84
2021/08/18 02:54:57;;;;;;;29.85;24.27;;;24.70;97.00;;;;;;5095355;28;20039;-83
2021/08/18 02:57:23;;;;;;;29.73;24.63;;;24.70;97.00;;;;;;5076787;28;20430;-83
2021/08/18 02:59:49;;;;;;;31.17;25.35;;;24.70;97.10;;;;;;5059760;28;20028;-83
2021/08/18 03:02:15;;;;;;;32.95;25.70;;;24.70;97.10;;;;;;5076505;28;20488;-83
2021/08/18 03:04:40;;;;;;;34.03;26.25;;;24.70;97.10;;;;;;5075470;28;20020;-84
2021/08/18 03:07:06;;;;;;;32.00;26.10;;;24.70;97.10;;;;;;5059394;28;20113;-83
2021/08/18 03:09:32;;;;;;;34.13;27.13;;;24.70;97.20;;;;;;5075989;28;20165;-83
2021/08/18 03:11:57;;;;;;;32.05;26.08;;;24.70;97.20;;;;;;5094975;28;20028;-83
2021/08/18 03:14:23;;;;;;;34.20;26.73;;;24.70;97.20;;;;;;5094470;28;20040;-82
2021/08/18 03:16:49;;;;;;;35.08;26.85;;;24.70;97.20;;;;;;5075714;28;20047;-83
2021/08/18 03:19:15;;;;;;;34.53;27.48;;;24.70;97.20;;;;;;5076187;28;20496;-83
2021/08/18 03:21:41;;;;;;;32.50;25.85;;;24.70;97.20;;;;;;5075426;28;20385;-83
2021/08/18 03:24:06;;;;;;;33.33;25.95;;;24.80;97.20;;;;;;5058836;28;20034;-83
2021/08/18 03:26:33;;;;;;;33.10;27.13;;;24.70;97.20;;;;;;5042332;28;20457;-82
2021/08/18 03:28:58;;;;;;;31.25;25.63;;;24.70;97.20;;;;;;5075893;28;20089;-83
2021/08/18 03:31:27;;;;;;;33.38;25.98;;;24.70;97.20;;;;;;5093860;28;20044;-83
2021/08/18 03:33:53;;;;;;;33.05;25.52;;;24.70;97.20;;;;;;5058974;28;20039;-83
2021/08/18 03:36:19;;;;;;;32.47;25.30;;;24.70;97.20;;;;;;5076146;28;20043;-83
2021/08/18 03:38:44;;;;;;;32.75;25.52;;;24.70;97.20;;;;;;5058799;28;20462;-83
2021/08/18 03:41:10;;;;;;;31.75;25.48;;;24.70;97.20;;;;;;5075800;28;20032;-83
2021/08/18 03:43:36;;;;;;;32.30;25.92;;;24.70;97.20;;;;;;5075211;28;20359;-83
2021/08/18 03:46:01;;;;;;;32.30;25.60;;;24.70;97.20;;;;;;5075325;28;20036;-83
2021/08/18 03:48:27;;;;;;;31.05;25.40;;;24.70;97.20;;;;;;5093260;28;20537;-82
2021/08/18 03:50:52;;;;;;;29.70;23.50;;;24.70;97.20;;;;;;5075385;28;20500;-83
2021/08/18 03:53:18;;;;;;;29.58;23.80;;;24.70;97.10;;;;;;5093287;28;20056;-83
2021/08/18 03:55:44;;;;;;;29.30;24.27;;;24.70;97.10;;;;;;5074991;28;20032;-83
2021/08/18 03:58:10;;;;;;;30.48;24.73;;;24.70;97.10;;;;;;5075263;28;20028;-83
2021/08/18 04:00:35;;;;;;;30.10;24.38;;;24.70;97.10;;;;;;5058299;28;20127;-83
2021/08/18 04:03:01;;;;;;;30.08;23.88;;;24.70;97.10;;;;;;5058764;28;20039;-84
2021/08/18 04:05:27;;;;;;;31.30;23.70;;;24.70;97.10;;;;;;5075095;28;20066;-83
2021/08/18 04:07:53;;;;;;;29.20;23.73;;;24.70;97.10;;;;;;5092672;28;20028;-83
2021/08/18 04:10:19;;;;;;;28.23;23.38;;;24.70;97.20;;;;;;5075255;28;20035;-83
2021/08/18 04:12:58;;;;;;;28.77;23.73;;;24.70;97.10;;;;;;5058178;28;20448;-83
2021/08/18 04:15:27;;;;;;;27.35;23.20;;;24.70;97.20;;;;;;5092506;28;20059;-83
2021/08/18 04:17:54;;;;;;;27.88;22.45;;;24.70;97.20;;;;;;5093008;28;20024;-83
2021/08/18 04:20:20;;;;;;;30.13;23.83;;;24.70;97.20;;;;;;5092654;28;20102;-83
2021/08/18 04:22:46;;;;;;;28.65;23.17;;;24.70;97.20;;;;;;5092356;28;20028;-83
2021/08/18 04:25:18;;;;;;;28.33;22.77;;;24.70;97.20;;;;;;5074218;28;20471;-83
2021/08/18 04:27:44;;;;;;;29.98;23.52;;;24.70;97.20;;;;;;5074410;28;20127;-83
2021/08/18 04:30:12;;;;;;;26.85;21.48;;;24.70;97.20;;;;;;5074731;28;20085;-83
2021/08/18 04:32:38;;;;;;;28.13;23.00;;;24.70;97.20;;;;;;5092475;28;20066;-83
2021/08/18 04:35:05;;;;;;;26.85;21.80;;;24.70;97.20;;;;;;5058488;28;20024;-82
2021/08/18 04:37:32;;;;;;;25.75;21.20;;;24.70;97.10;;;;;;5074536;28;20064;-82
2021/08/18 04:39:57;;;;;;;27.52;21.65;;;24.70;97.10;;;;;;5057663;28;20039;-83
2021/08/18 04:42:23;;;;;;;26.00;21.42;;;24.70;97.10;;;;;;5074314;28;20028;-82
2021/08/18 04:44:49;;;;;;;25.08;20.83;;;24.70;97.10;;;;;;5092055;28;20055;-83
2021/08/18 04:47:14;;;;;;;24.92;20.17;;;24.70;97.10;;;;;;5057830;28;20148;-83
2021/08/18 04:49:40;;;;;;;25.95;20.85;;;24.70;97.10;;;;;;5074170;28;20032;-82
2021/08/18 04:52:06;;;;;;;24.90;20.52;;;24.70;97.10;;;;;;5059152;28;20117;-82
2021/08/18 04:54:31;;;;;;;26.17;21.02;;;24.70;97.10;;;;;;5093957;28;20028;-82
2021/08/18 04:56:57;;;;;;;25.00;19.90;;;24.70;97.10;;;;;;5057297;28;20531;-83
2021/08/18 04:59:23;;;;;;;23.98;19.35;;;24.70;97.10;;;;;;5074192;28;20028;-82
2021/08/18 05:01:49;;;;;;;23.30;19.48;;;24.70;97.20;;;;;;5073878;28;20418;-82
2021/08/18 05:04:14;;;;;;;23.40;19.63;;;24.70;97.10;;;;;;5092099;28;20028;-82
2021/08/18 05:06:40;;;;;;;25.63;20.25;;;24.70;97.20;;;;;;5058826;28;20040;-83
2021/08/18 05:09:06;;;;;;;24.02;20.08;;;24.70;97.20;;;;;;5074034;28;20334;-82
2021/08/18 05:11:31;;;;;;;21.92;19.38;;;24.70;97.20;;;;;;5040966;28;20055;-83
2021/08/18 05:13:57;;;;;;;23.73;19.00;;;24.70;97.20;;;;;;5040608;28;20189;-83
2021/08/18 05:16:22;;;;;;;22.35;18.20;;;24.70;97.20;;;;;;5057552;28;20054;-83
2021/08/18 05:18:48;;;;;;;22.65;18.52;;;24.70;97.20;;;;;;5057030;28;20471;-83
2021/08/18 05:21:14;;;;;;;21.85;17.77;;;24.70;97.20;;;;;;5091990;28;20111;-83
2021/08/18 05:23:39;;;;;;;21.38;17.75;;;24.70;97.20;;;;;;5057082;28;20421;-87
2021/08/18 05:26:05;;;;;;;21.27;17.10;;;24.70;97.20;;;;;;5074794;28;20095;-82
2021/08/18 05:28:31;;;;;;;22.52;18.33;;;24.70;97.20;;;;;;5075795;28;20052;-82
2021/08/18 05:30:57;;;;;;;21.25;16.98;;;24.70;97.20;;;;;;5077294;28;20063;-83
2021/08/18 05:33:23;;;;;;;21.13;16.75;;;24.70;97.20;;;;;;5078132;28;20101;-82
2021/08/18 05:35:48;;;;;;;20.42;16.35;;;24.70;97.30;;;;;;5077485;28;20474;-82
2021/08/18 05:38:14;;;;;;;20.17;16.40;;;24.70;97.20;;;;;;5096905;28;20024;-82
2021/08/18 05:40:40;;;;;;;19.42;16.35;;;24.70;97.30;;;;;;5077504;28;20039;-84
2021/08/18 05:43:05;;;;;;;21.25;16.73;;;24.70;97.30;;;;;;5060517;28;20500;-83
2021/08/18 05:45:31;;;;;;;17.75;15.10;;;24.70;97.30;;;;;;5077187;28;20389;-83
2021/08/18 05:47:57;;;;;;;22.40;16.13;;;24.70;97.30;;;;;;5077222;28;20061;-82
2021/08/18 05:50:22;;;;;;;19.05;15.55;;;24.70;97.30;;;;;;5060828;28;20024;-83
2021/08/18 05:52:48;;;;;;;19.85;15.75;;;24.70;97.30;;;;;;5060628;28;20499;-83
2021/08/18 05:55:14;;;;;;;18.02;15.43;;;24.70;97.30;;;;;;5077647;28;20028;-82
2021/08/18 05:57:39;;;;;;;17.88;14.77;;;24.70;97.30;;;;;;5077388;28;20393;-82
2021/08/18 06:00:06;;;;;;;18.38;14.70;;;24.70;97.30;;;;;;5077065;28;20152;-82
2021/08/18 06:02:31;;;;;;;18.08;14.25;;;24.70;97.30;;;;;;5077275;28;20499;-82
2021/08/18 06:04:57;;;;;;;16.85;14.23;;;24.70;97.30;;;;;;5077689;28;20028;-83
2021/08/18 06:07:23;;;;;;;18.23;14.90;;;24.70;97.30;;;;;;5077306;28;20131;-83
2021/08/18 06:09:48;;;;;;;16.88;13.95;;;24.70;97.30;;;;;;5060240;28;20118;-85
2021/08/18 06:12:14;;;;;;;15.85;13.27;;;24.70;97.30;;;;;;5078047;28;20058;-84
2021/08/18 06:14:43;;;;;;;14.68;13.07;;;24.70;97.30;;;;;;5076665;28;20028;-83
2021/08/18 06:17:09;;;;;;;16.48;13.27;;;24.70;97.30;;;;;;5059689;28;20135;-85
2021/08/18 06:19:34;;;;;;;17.15;12.80;;;24.70;97.40;;;;;;5076150;28;20107;-83
2021/08/18 06:22:00;;;;;;;15.75;12.95;;;24.70;97.40;;;;;;5060137;28;20472;-83
2021/08/18 06:24:40;;;;;;;14.25;12.15;;;24.70;97.40;;;;;;5078175;28;20116;-84
2021/08/18 06:27:08;;;;;;;16.15;12.40;;;24.70;97.40;;;;;;5075569;28;20047;-84
2021/08/18 06:29:34;;;;;;;13.57;11.40;;;24.70;97.40;;;;;;5076923;28;20386;-83
2021/08/18 06:32:01;;;;;;;16.73;12.32;;;24.70;97.40;;;;;;5094473;28;20027;-83
2021/08/18 06:34:30;;;;;;;13.23;11.35;;;24.70;97.40;;;;;;5094999;28;20054;-83
2021/08/18 06:37:01;;;;;;;14.38;11.85;;;24.70;97.40;;;;;;5076500;28;20470;-84
2021/08/18 06:39:31;;;;;;;15.40;12.40;;;24.70;97.40;;;;;;5074255;28;20089;-84
2021/08/18 06:41:56;;;;;;;13.30;11.63;;;24.70;97.40;;;;;;5076520;28;20098;-84
2021/08/18 06:44:22;;;;;;;14.95;11.98;;;24.70;97.40;;;;;;5076412;28;20080;-84
2021/08/18 06:46:48;;;;;;;14.48;11.80;;;24.70;97.40;;;;;;5060680;28;20054;-84
2021/08/18 06:49:16;;;;;;;14.30;11.63;;;24.70;97.40;;;;;;5060377;28;20028;-84
2021/08/18 06:51:42;;;;;;;12.63;11.20;;;24.70;97.40;;;;;;5043950;28;20028;-84
2021/08/18 06:54:09;;;;;;;14.75;11.70;;;24.70;97.40;;;;;;5075999;28;20028;-84
2021/08/18 06:56:34;;;;;;;14.05;11.27;;;24.70;97.40;;;;;;5076705;28;20062;-84
2021/08/18 06:59:03;;;;;;;13.75;11.20;;;24.70;97.40;;;;;;5094749;28;20020;-84
2021/08/18 07:01:29;;;;;;;14.75;11.10;;;24.70;97.40;;;;;;5059820;28;20079;-84
2021/08/18 07:03:56;;;;;;;14.68;12.18;;;24.70;97.40;;;;;;5059096;28;20506;-84
2021/08/18 07:06:22;;;;;;;14.18;11.60;;;24.70;97.40;;;;;;5076025;28;20068;-84
2021/08/18 07:08:49;;;;;;;13.30;10.85;;;24.70;97.40;;;;;;5044998;28;20024;-84
2021/08/18 07:11:15;;;;;;;13.90;11.18;;;24.70;97.40;;;;;;5076231;28;20056;-85
2021/08/18 07:13:40;;;;;;;13.27;11.10;;;24.70;97.40;;;;;;5075290;28;20118;-84
2021/08/18 07:16:08;;;;;;;13.23;10.65;;;24.70;97.40;;;;;;5075639;28;20438;-84
2021/08/18 07:18:33;;;;;;;11.15;9.30;;;24.70;97.70;;;;;;5059503;28;20024;-84
2021/08/18 07:20:59;;;;;;;12.68;9.38;;;24.70;97.50;;;;;;5075080;28;20026;-84
2021/08/18 07:23:25;;;;;;;13.90;9.63;;;24.70;97.50;;;;;;5059162;28;20057;-84
2021/08/18 07:25:51;;;;;;;10.18;9.13;;;24.70;97.50;;;;;;5075159;28;20052;-88
2021/08/18 07:28:17;;;;;;;13.02;9.55;;;24.70;97.50;;;;;;5058951;28;20441;-84
2021/08/18 07:30:42;;;;;;;11.30;8.93;;;24.70;97.50;;;;;;5076654;28;20119;-84
2021/08/18 07:33:11;;;;;;;10.13;8.60;;;24.70;97.40;;;;;;5058667;28;20122;-85
2021/08/18 07:35:38;;;;;;;11.77;9.18;;;24.80;97.40;;;;;;5094294;28;20116;-83
2021/08/18 07:38:03;;;;;;;9.05;8.02;;;24.70;97.40;;;;;;5075754;28;20039;-83
2021/08/18 07:40:29;;;;;;;10.02;8.30;;;24.70;97.40;;;;;;5076005;28;20037;-83
2021/08/18 07:42:56;;;;;;;9.63;8.02;;;24.70;97.40;;;;;;5075265;28;20031;-84
2021/08/18 07:45:23;;;;;;;8.98;7.90;;;24.70;97.30;;;;;;5076497;28;20024;-84
2021/08/18 07:47:51;;;;;;;9.70;7.90;;;24.70;97.40;;;;;;5093580;28;20149;-84
2021/08/18 07:50:17;;;;;;;9.43;6.60;;;24.70;97.50;;;;;;5074575;28;20462;-83
2021/08/18 07:52:44;;;;;;;7.50;6.45;;;24.70;97.50;;;;;;5057596;28;20123;-83
2021/08/18 07:55:10;;;;;;;9.35;6.95;;;24.70;97.60;;;;;;5073776;28;20039;-83
2021/08/18 07:57:36;;;;;;;8.13;6.70;;;24.70;97.60;;;;;;5075305;28;20120;-83
2021/08/18 08:00:04;;;;;;;7.70;6.07;;;24.60;97.80;;;;;;5093476;28;20493;-83
2021/08/18 08:02:30;;;;;;;9.70;6.60;;;24.60;97.70;;;;;;5075193;28;20057;-83
2021/08/18 08:04:56;;;;;;;8.50;6.13;;;24.70;98.00;;;;;;5075504;28;20474;-85
2021/08/18 08:07:21;;;;;;;8.35;5.57;;;24.60;98.10;;;;;;5076342;28;20040;-83
2021/08/18 08:09:47;;;;;;;8.32;5.07;;;24.70;98.30;;;;;;5075124;28;20021;-83
2021/08/18 08:12:13;;;;;;;7.97;5.60;;;24.70;98.40;;;;;;5075199;28;20021;-84
2021/08/18 08:14:39;;;;;;;7.35;5.82;;;24.70;98.40;;;;;;5074560;28;20480;-83
2021/08/18 08:17:04;;;;;;;5.97;4.88;;;24.70;98.20;;;;;;5057931;28;20477;-83
2021/08/18 08:19:30;;;;;;;5.18;4.10;;;24.70;98.10;;;;;;5074818;28;20058;-83
2021/08/18 08:21:56;;;;;;;5.68;4.25;;;24.70;97.90;;;;;;5074545;28;20458;-86
2021/08/18 08:24:22;;;;;;;5.53;4.03;;;24.70;97.80;;;;;;5074480;28;20028;-82
2021/08/18 08:26:48;;;;;;;6.85;4.18;;;24.70;97.70;;;;;;5092751;28;20054;-82
2021/08/18 08:29:13;;;;;;;7.43;4.30;;;24.70;97.60;;;;;;5075146;28;20470;-83
2021/08/18 08:31:42;;;;;;;4.45;3.50;;;24.70;97.50;;;;;;5074726;28;20122;-82
2021/08/18 08:34:08;;;;;;;5.13;3.88;;;24.80;97.50;;;;;;5074235;28;20032;-82
2021/08/18 08:36:33;;;;;;;5.18;3.47;;;24.80;97.50;;;;;;5057991;28;20480;-82
2021/08/18 08:38:59;;;;;;;5.28;3.15;;;24.80;97.50;;;;;;5075166;28;20398;-82
2021/08/18 08:41:25;;;;;;;4.97;3.55;;;24.80;97.50;;;;;;5092982;28;20523;-81
2021/08/18 08:43:52;;;;;;;3.35;3.05;;;24.80;97.70;;;;;;5058724;28;20432;-85
2021/08/18 08:46:20;;;;;;;4.70;3.00;;;24.80;97.50;;;;;;5074228;28;20043;-82
2021/08/18 08:48:47;;;;;;;4.70;3.00;;;24.90;97.50;;;;;;5073607;28;20042;-82
2021/08/18 08:51:13;;;;;;;4.32;3.05;;;24.90;97.50;;;;;;5073229;28;20063;-82
2021/08/18 08:53:39;;;;;;;5.90;3.00;;;24.90;97.50;;;;;;5074223;28;20047;-82
2021/08/18 08:56:10;;;;;;;3.85;2.80;;;24.90;97.60;;;;;;5073993;28;20063;-82
2021/08/18 08:58:36;;;;;;;3.33;2.47;;;24.80;97.60;;;;;;5074306;28;20028;-82
2021/08/18 09:01:04;;;;;;;2.67;2.40;;;24.80;97.60;;;;;;5073422;28;20109;-83
2021/08/18 09:03:35;;;;;;;4.93;2.92;;;24.80;97.60;;;;;;5091197;28;20036;-83
2021/08/18 09:06:14;;;;;;;2.88;2.55;;;24.80;97.50;;;;;;5090324;28;20501;-84
2021/08/18 09:08:52;;;;;;;2.30;2.10;;;24.80;97.50;;;;;;5073785;28;20044;-83
2021/08/18 09:11:20;;;;;;;2.90;2.47;;;24.80;97.50;;;;;;5073493;28;20111;-84
2021/08/18 09:13:53;;;;;;;2.65;2.40;;;24.80;97.60;;;;;;5073897;28;20040;-84
2021/08/18 09:16:33;;;;;;;3.05;2.72;;;24.80;97.80;;;;;;5072968;28;20067;-84
2021/08/18 09:18:59;;;;;;;3.55;2.58;;;24.80;98.00;;;;;;5091613;28;20049;-83
2021/08/18 09:21:36;;;;;;;3.53;2.45;;;24.80;98.10;;;;;;5091915;28;20075;-84
2021/08/18 09:24:14;;;;;;;4.68;2.55;;;24.80;98.40;;;;;;5091322;28;20485;-85
2021/08/18 09:26:42;;;;;;;4.50;2.70;;;24.80;98.60;;;;;;5073456;28;20132;-83
2021/08/18 09:29:09;;;;;;;2.92;2.63;;;24.80;98.80;;;;;;5072851;28;20024;-83
2021/08/18 09:31:35;;;;;;;4.47;2.65;;;24.80;98.90;;;;;;5076056;28;20050;-83
2021/08/18 09:34:01;;;;;;;3.63;2.60;;;24.80;98.90;;;;;;5074058;28;20533;-84
2021/08/18 09:36:29;;;;;;;3.97;2.90;;;24.70;98.90;;;;;;5040002;28;20094;-83
2021/08/18 09:39:26;;;;;;;5.53;2.70;;;24.80;98.90;;;;;;5057025;28;20032;-83
2021/08/18 09:41:56;;;;;;;3.17;2.60;;;24.70;98.80;;;;;;5073735;28;20097;-84
2021/08/18 09:44:22;;;;;;;4.88;3.28;;;24.80;98.70;;;;;;5057320;28;20031;-84
2021/08/18 09:47:07;;;;;;;5.05;3.53;;;24.70;98.70;;;;;;5072461;28;20123;-83
2021/08/18 09:49:37;;;;;;;;;;;24.70;98.70;;;;;;5057893;28;20438;-84
2021/08/18 09:52:04;;;;;;;4.57;3.33;;;24.70;98.70;;;;;;5074135;28;19912;-84
2021/08/18 09:54:38;;;;;;;5.30;3.97;;;24.70;98.70;;;;;;5056552;28;20036;-84
2021/08/18 09:57:09;;;;;;;4.78;3.70;;;24.70;98.70;;;;;;5075029;28;20115;-83
2021/08/18 09:59:43;;;;;;;6.18;4.50;;;24.70;98.70;;;;;;5073924;28;20066;-84
2021/08/18 10:02:10;;;;;;;5.63;3.90;;;24.70;98.70;;;;;;5057228;28;20465;-83
2021/08/18 10:04:38;;;;;;;5.05;4.18;;;24.70;98.80;;;;;;5074091;28;20032;-82
2021/08/18 10:07:05;;;;;;;5.78;4.35;;;24.70;99.10;;;;;;5057526;28;20509;-83
2021/08/18 10:09:31;;;;;;;4.70;3.83;;;24.70;99.20;;;;;;5056361;28;20031;-83
2021/08/18 10:11:57;;;;;;;5.88;4.15;;;24.70;99.10;;;;;;5056685;28;20046;-83
2021/08/18 10:14:23;;;;;;;5.97;4.43;;;24.70;99.20;;;;;;5075579;28;20028;-83
2021/08/18 10:16:50;;;;;;;5.40;3.80;;;24.70;99.20;;;;;;5077588;28;20093;-83
2021/08/18 10:19:19;;;;;;;6.35;3.90;;;24.70;99.20;;;;;;5044040;28;20494;-84
2021/08/18 10:21:46;;;;;;;4.55;3.65;;;24.70;99.40;;;;;;5060379;28;20137;-84
2021/08/18 10:24:34;;;;;;;5.32;3.85;;;24.70;99.20;;;;;;5058141;28;20043;-84
2021/08/18 10:27:00;;;;;;;5.07;3.78;;;24.70;99.20;;;;;;5076741;28;20113;-83
2021/08/18 10:29:39;;;;;;;4.65;3.60;;;24.70;99.20;;;;;;5076655;28;20390;-83
2021/08/18 10:32:14;;;;;;;4.55;3.53;;;24.70;99.20;;;;;;5060612;28;20035;-83
2021/08/18 10:34:40;;;;;;;;;;;24.70;99.20;;;;;;5077589;28;20024;-83
2021/08/18 10:37:17;;;;;;;5.38;3.55;;;24.70;99.20;;;;;;5076627;28;20366;-82
2021/08/18 10:39:51;;;;;;;4.22;3.80;;;24.70;99.20;;;;;;5094987;28;20082;-83
2021/08/18 10:42:37;;;;;;;4.82;3.45;;;24.70;99.10;;;;;;5078726;28;20042;-83
2021/08/18 10:45:23;;;;;;;4.18;3.47;;;24.70;99.10;;;;;;5094905;28;20071;-82
2021/08/18 10:47:49;;;;;;;4.10;3.70;;;24.80;99.10;;;;;;5076316;28;20131;-84
2021/08/18 10:50:17;;;;;;;5.88;3.70;;;24.80;99.20;;;;;;5076089;28;20378;-85
2021/08/18 10:52:43;;;;;;;6.72;3.95;;;24.80;99.20;;;;;;5076801;28;20466;-85
2021/08/18 10:55:25;;;;;;;4.20;3.72;;;24.80;99.20;;;;;;5077036;28;20020;-85
2021/08/18 10:57:55;;;;;;;4.40;3.50;;;24.70;99.20;;;;;;5077189;28;20028;-85
2021/08/18 11:00:22;;;;;;;3.75;3.28;;;24.70;99.20;;;;;;5059646;28;20039;-84
2021/08/18 11:02:50;;;;;;;3.45;3.08;;;24.70;99.30;;;;;;5094504;28;20017;-83
2021/08/18 11:05:17;;;;;;;5.65;3.92;;;24.70;99.40;;;;;;5094027;28;20020;-84
2021/08/18 11:08:15;;;;;;;4.30;3.78;;;24.70;99.50;;;;;;5080999;28;20036;-84
2021/08/18 11:10:55;;;;;;;3.10;2.80;;;24.70;99.40;;;;;;5022204;28;20131;-84
2021/08/18 11:13:38;;;;;;;5.00;3.63;;;24.70;99.50;;;;;;5076155;28;20020;-84
2021/08/18 11:16:11;;;;;;;3.50;3.20;;;24.70;99.50;;;;;;5080508;28;20357;-84
2021/08/18 11:19:05;;;;;;;3.42;3.05;;;24.70;99.50;;;;;;5076023;28;20047;-84
2021/08/18 11:21:34;;;;;;;3.60;3.00;;;24.70;99.50;;;;;;5074953;28;20071;-84
2021/08/18 11:24:09;;;;;;;3.90;2.92;;;24.70;99.50;;;;;;5081590;28;20025;-84
2021/08/18 11:26:36;;;;;;;3.92;2.90;;;24.70;99.50;;;;;;5080503;28;20121;-84
2021/08/18 11:29:10;;;;;;;3.60;3.30;;;24.80;99.40;;;;;;5075929;28;20024;-83
2021/08/18 11:31:44;;;;;;;3.00;2.80;;;24.80;99.60;;;;;;5075333;28;20024;-84
2021/08/18 11:34:35;;;;;;;3.47;3.03;;;24.80;99.30;;;;;;5075997;28;20051;-84
2021/08/18 11:37:07;;;;;;;3.90;2.83;;;24.80;99.30;;;;;;5076067;28;20122;-86
2021/08/18 11:39:36;;;;;;;3.70;3.00;;;24.80;99.20;;;;;;5075529;28;20028;-83
2021/08/18 11:42:41;;;;;;;3.15;2.80;;;24.80;99.10;;;;;;5094254;28;20039;-83
2021/08/18 11:45:15;;;;;;;4.67;2.80;;;24.80;99.10;;;;;;4975934;28;20037;-89
2021/08/18 11:47:41;;;;;;;4.15;3.22;;;24.90;99.10;;;;;;5047703;28;20398;-89
2021/08/18 11:50:16;;;;;;;3.92;3.10;;;24.90;99.10;;;;;;5075935;28;20158;-88
2021/08/18 11:52:42;;;;;;;3.85;2.70;;;24.90;99.00;;;;;;5059291;28;20032;-89
2021/08/18 11:55:08;;;;;;;4.15;2.80;;;24.90;99.00;;;;;;5060672;28;20076;-89
2021/08/18 11:57:34;;;;;;;3.03;2.65;;;24.90;99.00;;;;;;5093470;28;20056;-89
2021/08/18 12:00:10;;;;;;;3.63;2.90;;;24.90;98.90;;;;;;5094348;28;20498;-88
2021/08/18 12:02:40;;;;;;;3.30;2.67;;;24.90;98.90;;;;;;5077053;28;20377;-89
2021/08/18 12:05:15;;;;;;;3.55;2.63;;;24.90;98.80;;;;;;5075506;28;20028;-89
2021/08/18 12:07:42;;;;;;;3.60;2.78;;;24.90;98.90;;;;;;5060173;28;20040;-88
2021/08/18 12:10:26;;;;;;;4.70;3.03;;;24.90;98.90;;;;;;5082401;28;20024;-89
2021/08/18 12:13:12;;;;;;;2.80;2.50;;;24.90;98.90;;;;;;5104619;28;20021;-88
2021/08/18 12:15:46;;;;;;;3.25;2.60;;;24.90;98.90;;;;;;5078163;28;20036;-88
2021/08/18 12:18:33;;;;;;;3.13;2.80;;;24.90;98.90;;;;;;5075687;28;20047;-89
2021/08/18 12:21:19;;;;;;;3.85;2.88;;;24.90;98.80;;;;;;5079759;28;20343;-88
2021/08/18 12:23:46;;;;;;;5.80;2.83;;;24.90;98.90;;;;;;5093316;28;20422;-89
2021/08/18 12:26:30;;;;;;;3.08;2.60;;;25.00;98.90;;;;;;5093208;28;20048;-88
2021/08/18 12:28:58;;;;;;;3.25;2.28;;;24.90;98.80;;;;;;5075480;28;20460;-88
2021/08/18 12:31:51;;;;;;;3.20;2.40;;;25.00;98.80;;;;;;5075392;28;20108;-89
2021/08/18 12:34:17;;;;;;;3.22;2.58;;;24.90;98.80;;;;;;5092910;28;20050;-81
2021/08/18 12:36:42;;;;;;;3.22;2.78;;;25.00;98.70;;;;;;5093463;28;20036;-85
2021/08/18 12:39:09;;;;;;;3.15;2.40;;;25.00;98.70;;;;;;5095330;28;20121;-85
2021/08/18 12:41:38;;;;;;;3.88;2.47;;;25.00;98.70;;;;;;5075474;28;20039;-84